Time;durP1;ratioP1;P1;durP2;ratioP2;P2;SDS_P1;SDS_P2;PMS_P1;PMS_P2;Temp;Humidity;BMP_temperature;BMP_pressure;BME280_temperature;BME280_humidity;BME280_pressure;Samples;Min_cycle;Max_cycle;Signal;HPM_P1;HPM_P2
2023/04/28 00:00:53;;;;;;;10.77;4.05;;;;;;;;;;5168164;27;20081;-62
2023/04/28 00:03:20;;;;;;;5.20;4.00;;;;;;;;;;5184038;27;20053;-62
2023/04/28 00:05:48;;;;;;;7.00;4.13;;;;;;;;;;5185373;27;20454;-62
2023/04/28 00:08:15;;;;;;;12.73;4.38;;;;;;;;;;5184797;27;20400;-62
2023/04/28 00:10:41;;;;;;;4.88;3.70;;;;;;;;;;5186445;27;20538;-62
2023/04/28 00:13:07;;;;;;;6.53;4.10;;;;;;;;;;5186898;27;20530;-62
2023/04/28 00:15:34;;;;;;;7.90;4.70;;;;;;;;;;5184744;27;20396;-62
2023/04/28 00:18:00;;;;;;;5.25;3.97;;;;;;;;;;5186161;27;20135;-62
2023/04/28 00:20:27;;;;;;;4.63;4.00;;;;;;;;;;5186425;27;20054;-62
2023/04/28 00:22:53;;;;;;;7.53;3.72;;;;;;;;;;5183669;27;20050;-62
2023/04/28 00:25:20;;;;;;;6.65;3.92;;;;;;;;;;5182151;27;20054;-64
2023/04/28 00:27:46;;;;;;;5.85;4.30;;;;;;;;;;5182211;27;20503;-62
2023/04/28 00:30:13;;;;;;;7.90;4.15;;;;;;;;;;5183835;27;20508;-62
2023/04/28 00:32:39;;;;;;;6.07;3.97;;;;;;;;;;5185598;27;20050;-62
2023/04/28 00:35:06;;;;;;;5.75;4.22;;;;;;;;;;5185659;27;20153;-62
2023/04/28 00:37:34;;;;;;;6.68;4.32;;;;;;;;;;5184294;27;20495;-60
2023/04/28 00:40:01;;;;;;;4.75;3.53;;;;;;;;;;5177023;27;20068;-61
2023/04/28 00:42:27;;;;;;;5.78;3.88;;;;;;;;;;5185610;27;20148;-62
2023/04/28 00:44:54;;;;;;;5.88;3.92;;;;;;;;;;5186680;27;20073;-62
2023/04/28 00:47:21;;;;;;;5.00;3.63;;;;;;;;;;5186793;27;20500;-62
2023/04/28 00:49:48;;;;;;;6.18;4.05;;;;;;;;;;5184488;27;20137;-62
2023/04/28 00:52:14;;;;;;;4.47;3.63;;;;;;;;;;5185307;27;20088;-61
2023/04/28 00:54:46;;;;;;;8.43;4.55;;;;;;;;;;5185670;27;20133;-62
2023/04/28 00:57:12;;;;;;;4.63;4.00;;;;;;;;;;5184819;27;20050;-62
2023/04/28 00:59:39;;;;;;;5.03;3.83;;;;;;;;;;5189511;27;20060;-62
2023/04/28 01:02:07;;;;;;;8.23;4.68;;;;;;;;;;5186460;27;20047;-62
2023/04/28 01:04:33;;;;;;;7.45;4.28;;;;;;;;;;5189496;27;20523;-62
2023/04/28 01:07:00;;;;;;;7.22;4.93;;;;;;;;;;5188491;27;20054;-62
2023/04/28 01:09:27;;;;;;;5.25;3.65;;;;;;;;;;5182421;27;20054;-62
2023/04/28 01:11:54;;;;;;;5.63;4.10;;;;;;;;;;5188003;27;20149;-62
2023/04/28 01:14:20;;;;;;;6.22;3.67;;;;;;;;;;5189203;27;20046;-62
2023/04/28 01:16:47;;;;;;;5.22;3.78;;;;;;;;;;5187865;27;20423;-62
2023/04/28 01:19:20;;;;;;;4.80;4.20;;;;;;;;;;5188577;27;20141;-62
2023/04/28 01:21:47;;;;;;;4.85;3.88;;;;;;;;;;5187392;27;20046;-61
2023/04/28 01:24:13;;;;;;;4.95;3.85;;;;;;;;;;5187939;27;20050;-61
2023/04/28 01:26:40;;;;;;;6.45;4.45;;;;;;;;;;5188257;27;20564;-62
2023/04/28 01:29:06;;;;;;;3.88;3.47;;;;;;;;;;5187606;27;20504;-61
2023/04/28 01:31:32;;;;;;;6.43;3.67;;;;;;;;;;5187846;27;20061;-61
2023/04/28 01:33:59;;;;;;;6.40;3.88;;;;;;;;;;5170049;27;20085;-61
2023/04/28 01:36:27;;;;;;;6.25;3.92;;;;;;;;;;5188779;27;20052;-61
2023/04/28 01:38:53;;;;;;;5.45;3.95;;;;;;;;;;5188518;27;20042;-61
2023/04/28 01:41:21;;;;;;;7.90;4.15;;;;;;;;;;5185778;27;20118;-62
2023/04/28 01:43:47;;;;;;;5.93;3.72;;;;;;;;;;5187061;27;20516;-61
2023/04/28 01:46:13;;;;;;;4.13;3.63;;;;;;;;;;5188558;27;20062;-61
2023/04/28 01:48:40;;;;;;;5.03;3.53;;;;;;;;;;5187820;27;20046;-62
2023/04/28 01:51:06;;;;;;;4.88;3.58;;;;;;;;;;5170353;27;20054;-63
2023/04/28 01:53:33;;;;;;;6.28;3.83;;;;;;;;;;5186836;27;20149;-61
2023/04/28 01:55:59;;;;;;;7.70;4.28;;;;;;;;;;5185624;27;20099;-61
2023/04/28 01:58:25;;;;;;;5.65;3.95;;;;;;;;;;5187560;27;20123;-62
2023/04/28 02:00:52;;;;;;;5.32;3.50;;;;;;;;;;5187294;27;20046;-62
2023/04/28 02:03:18;;;;;;;4.40;3.78;;;;;;;;;;5188192;27;20051;-62
2023/04/28 02:05:45;;;;;;;7.13;4.00;;;;;;;;;;5170332;27;20444;-62
2023/04/28 02:08:11;;;;;;;6.43;3.92;;;;;;;;;;5185954;27;20052;-61
2023/04/28 02:10:37;;;;;;;4.85;3.67;;;;;;;;;;5187557;27;20050;-61
2023/04/28 02:13:04;;;;;;;6.10;4.10;;;;;;;;;;5187431;27;20578;-61
2023/04/28 02:15:30;;;;;;;8.00;3.90;;;;;;;;;;5188809;27;20482;-62
2023/04/28 02:17:56;;;;;;;5.55;3.67;;;;;;;;;;5184156;27;20050;-62
2023/04/28 02:20:23;;;;;;;4.80;3.50;;;;;;;;;;5157954;27;20137;-61
2023/04/28 02:22:49;;;;;;;6.07;3.80;;;;;;;;;;5185475;27;20133;-60
2023/04/28 02:25:15;;;;;;;8.00;4.25;;;;;;;;;;5188720;27;20129;-61
2023/04/28 02:27:42;;;;;;;5.22;3.45;;;;;;;;;;5167024;27;20046;-62
2023/04/28 02:30:08;;;;;;;5.13;4.00;;;;;;;;;;5182807;27;20051;-61
2023/04/28 02:32:34;;;;;;;3.97;3.55;;;;;;;;;;5186977;27;20055;-61
2023/04/28 02:35:01;;;;;;;9.32;4.13;;;;;;;;;;5185809;27;20110;-61
2023/04/28 02:37:27;;;;;;;6.25;3.70;;;;;;;;;;5188013;27;20050;-62
2023/04/28 02:39:54;;;;;;;4.70;3.55;;;;;;;;;;5188069;27;20054;-61
2023/04/28 02:42:21;;;;;;;5.38;4.25;;;;;;;;;;5188672;27;20077;-61
2023/04/28 02:44:47;;;;;;;6.22;3.70;;;;;;;;;;5188160;27;20534;-61
2023/04/28 02:47:13;;;;;;;5.63;3.60;;;;;;;;;;5184878;27;20057;-60
2023/04/28 02:49:40;;;;;;;5.93;3.72;;;;;;;;;;5184381;27;20061;-61
2023/04/28 02:52:06;;;;;;;4.95;3.63;;;;;;;;;;5187269;27;20060;-62
2023/04/28 02:54:34;;;;;;;7.13;3.75;;;;;;;;;;5186951;27;20173;-61
2023/04/28 02:57:02;;;;;;;4.28;3.30;;;;;;;;;;5187455;27;20057;-62
2023/04/28 02:59:29;;;;;;;6.00;3.75;;;;;;;;;;5187148;27;20050;-62
2023/04/28 03:01:56;;;;;;;6.07;4.03;;;;;;;;;;5165416;27;20057;-61
2023/04/28 03:04:22;;;;;;;6.43;3.70;;;;;;;;;;5178567;27;20715;-62
2023/04/28 03:06:49;;;;;;;5.10;3.20;;;;;;;;;;5187640;27;20516;-62
2023/04/28 03:09:15;;;;;;;7.15;3.65;;;;;;;;;;5185685;27;20054;-62
2023/04/28 03:11:41;;;;;;;7.93;3.97;;;;;;;;;;5187449;27;20054;-62
2023/04/28 03:14:08;;;;;;;4.90;3.58;;;;;;;;;;5185346;27;20057;-61
2023/04/28 03:16:34;;;;;;;6.28;4.40;;;;;;;;;;5185627;27;20442;-61
2023/04/28 03:19:00;;;;;;;9.07;4.13;;;;;;;;;;5183916;27;20050;-62
2023/04/28 03:21:27;;;;;;;6.78;4.15;;;;;;;;;;5186272;27;20046;-62
2023/04/28 03:23:54;;;;;;;6.32;4.15;;;;;;;;;;5187731;27;20050;-62
2023/04/28 03:26:21;;;;;;;4.40;3.78;;;;;;;;;;5187515;27;20500;-62
2023/04/28 03:28:47;;;;;;;6.35;4.05;;;;;;;;;;5184812;27;20476;-61
2023/04/28 03:31:14;;;;;;;5.30;4.10;;;;;;;;;;5183431;27;20051;-62
2023/04/28 03:33:41;;;;;;;7.38;4.05;;;;;;;;;;5186860;27;20047;-61
2023/04/28 03:36:07;;;;;;;5.18;3.85;;;;;;;;;;5186506;27;20054;-62
2023/04/28 03:38:34;;;;;;;7.53;4.47;;;;;;;;;;5182137;27;20050;-63
2023/04/28 03:41:00;;;;;;;5.93;3.88;;;;;;;;;;5181772;27;20082;-61
2023/04/28 03:43:26;;;;;;;5.45;4.07;;;;;;;;;;5186974;27;20054;-62
2023/04/28 03:45:53;;;;;;;5.15;3.88;;;;;;;;;;5185779;27;20054;-62
2023/04/28 03:48:19;;;;;;;7.30;4.57;;;;;;;;;;5182062;27;20173;-62
2023/04/28 03:50:46;;;;;;;5.88;3.92;;;;;;;;;;5190676;27;20387;-62
2023/04/28 03:53:12;;;;;;;5.00;3.88;;;;;;;;;;5186363;27;20058;-62
2023/04/28 03:55:39;;;;;;;6.57;3.53;;;;;;;;;;5184943;27;20599;-61
2023/04/28 03:58:05;;;;;;;7.35;4.45;;;;;;;;;;5180697;27;20080;-62
2023/04/28 04:00:31;;;;;;;7.35;4.25;;;;;;;;;;5178517;27;20050;-62
2023/04/28 04:02:58;;;;;;;6.90;4.00;;;;;;;;;;5170535;27;20054;-61
2023/04/28 04:05:24;;;;;;;7.72;3.92;;;;;;;;;;5186969;27;20046;-61
2023/04/28 04:07:51;;;;;;;6.13;5.00;;;;;;;;;;5184444;27;20128;-61
2023/04/28 04:10:18;;;;;;;4.85;3.90;;;;;;;;;;5181719;27;20050;-62
2023/04/28 04:12:44;;;;;;;6.45;4.00;;;;;;;;;;5161798;27;20046;-61
2023/04/28 04:15:11;;;;;;;4.70;4.03;;;;;;;;;;5181074;27;20935;-61
2023/04/28 04:17:37;;;;;;;6.80;3.97;;;;;;;;;;5180748;27;20103;-60
2023/04/28 04:20:04;;;;;;;7.38;4.70;;;;;;;;;;5185611;27;20443;-63
2023/04/28 04:22:30;;;;;;;7.65;4.32;;;;;;;;;;5184500;27;20526;-61
2023/04/28 04:24:57;;;;;;;9.05;4.18;;;;;;;;;;5185951;27;20548;-61
2023/04/28 04:27:24;;;;;;;8.30;4.47;;;;;;;;;;5186170;27;20046;-62
2023/04/28 04:29:51;;;;;;;5.57;4.60;;;;;;;;;;5185305;27;20081;-63
2023/04/28 04:32:17;;;;;;;6.25;4.22;;;;;;;;;;5185579;27;20046;-64
2023/04/28 04:34:44;;;;;;;5.97;4.38;;;;;;;;;;5183296;27;20078;-62
2023/04/28 04:37:10;;;;;;;8.57;4.28;;;;;;;;;;5186460;27;20080;-61
2023/04/28 04:39:36;;;;;;;5.50;4.15;;;;;;;;;;5185740;27;20050;-62
2023/04/28 04:42:03;;;;;;;12.60;4.20;;;;;;;;;;5205819;27;20054;-62
2023/04/28 04:44:48;;;;;;;6.70;4.35;;;;;;;;;;5205771;27;20081;-64
2023/04/28 04:47:14;;;;;;;6.07;4.55;;;;;;;;;;5183215;27;20046;-61
2023/04/28 04:49:40;;;;;;;6.03;4.30;;;;;;;;;;5185436;27;20125;-63
2023/04/28 04:52:07;;;;;;;5.88;4.32;;;;;;;;;;5185265;27;20107;-61
2023/04/28 04:54:33;;;;;;;9.32;4.68;;;;;;;;;;5183941;27;20043;-61
2023/04/28 04:57:00;;;;;;;7.20;4.13;;;;;;;;;;5178243;27;20046;-60
2023/04/28 04:59:27;;;;;;;7.78;4.13;;;;;;;;;;5185170;27;20516;-61
2023/04/28 05:01:53;;;;;;;5.28;4.28;;;;;;;;;;5180772;27;20099;-62
2023/04/28 05:04:20;;;;;;;6.45;4.63;;;;;;;;;;5186060;27;20052;-62
2023/04/28 05:06:47;;;;;;;7.43;4.47;;;;;;;;;;5184597;27;20054;-63
2023/04/28 05:09:13;;;;;;;7.65;4.43;;;;;;;;;;5182368;27;20508;-62
2023/04/28 05:11:39;;;;;;;6.97;4.72;;;;;;;;;;5177600;27;20492;-61
2023/04/28 05:14:06;;;;;;;7.97;4.35;;;;;;;;;;5189378;27;20062;-61
2023/04/28 05:16:32;;;;;;;6.32;4.07;;;;;;;;;;5188721;27;20050;-61
2023/04/28 05:18:59;;;;;;;5.93;4.43;;;;;;;;;;5165588;27;20047;-64
2023/04/28 05:21:26;;;;;;;11.05;4.75;;;;;;;;;;5184673;27;20141;-64
2023/04/28 05:23:52;;;;;;;7.45;4.75;;;;;;;;;;5181980;27;20077;-64
2023/04/28 05:26:19;;;;;;;7.85;4.95;;;;;;;;;;5164506;27;20122;-60
2023/04/28 05:28:45;;;;;;;7.15;4.13;;;;;;;;;;5185596;27;20054;-64
2023/04/28 05:31:11;;;;;;;7.60;5.07;;;;;;;;;;5167095;27;20054;-64
2023/04/28 05:33:38;;;;;;;8.48;5.05;;;;;;;;;;5186084;27;20057;-61
2023/04/28 05:36:04;;;;;;;11.35;4.80;;;;;;;;;;5183653;27;20054;-61
2023/04/28 05:38:32;;;;;;;7.20;4.88;;;;;;;;;;5186066;27;20055;-61
2023/04/28 05:41:02;;;;;;;5.47;4.85;;;;;;;;;;5185341;27;20049;-64
2023/04/28 05:43:29;;;;;;;8.88;4.72;;;;;;;;;;5182085;27;20303;-64
2023/04/28 05:45:55;;;;;;;9.50;5.78;;;;;;;;;;5187735;27;20482;-64
2023/04/28 05:48:22;;;;;;;9.43;6.03;;;;;;;;;;5189644;27;20558;-61
2023/04/28 05:50:48;;;;;;;7.68;5.70;;;;;;;;;;5188364;27;20162;-61
2023/04/28 05:53:14;;;;;;;10.20;5.63;;;;;;;;;;5187999;27;20411;-63
2023/04/28 05:55:41;;;;;;;9.90;6.22;;;;;;;;;;5165318;27;20127;-61
2023/04/28 05:58:08;;;;;;;7.47;5.70;;;;;;;;;;5186658;27;20046;-62
2023/04/28 06:00:34;;;;;;;10.25;5.88;;;;;;;;;;5186740;27;20648;-62
2023/04/28 06:03:00;;;;;;;11.25;5.75;;;;;;;;;;5182087;27;20095;-62
2023/04/28 06:05:27;;;;;;;10.10;7.35;;;;;;;;;;5188577;27;20057;-64
2023/04/28 06:07:54;;;;;;;8.60;6.45;;;;;;;;;;5189930;27;20046;-61
2023/04/28 06:10:22;;;;;;;11.52;7.20;;;;;;;;;;5186159;27;20050;-63
2023/04/28 06:12:48;;;;;;;11.38;6.70;;;;;;;;;;5187460;27;20317;-61
2023/04/28 06:15:15;;;;;;;9.70;6.75;;;;;;;;;;5186097;27;20146;-60
2023/04/28 06:17:41;;;;;;;7.65;5.78;;;;;;;;;;5187272;27;20058;-61
2023/04/28 06:20:09;;;;;;;9.63;6.47;;;;;;;;;;5184003;27;20054;-62
2023/04/28 06:22:36;;;;;;;10.20;7.05;;;;;;;;;;5194125;27;20061;-64
2023/04/28 06:25:02;;;;;;;9.27;7.03;;;;;;;;;;5191834;27;20050;-61
2023/04/28 06:27:31;;;;;;;10.55;7.20;;;;;;;;;;5185747;27;20145;-64
2023/04/28 06:29:58;;;;;;;13.02;7.75;;;;;;;;;;5186992;27;20089;-61
2023/04/28 06:32:25;;;;;;;9.45;7.10;;;;;;;;;;5183070;27;20078;-61
2023/04/28 06:34:51;;;;;;;8.73;6.55;;;;;;;;;;5183189;27;20057;-62
2023/04/28 06:37:18;;;;;;;10.00;7.40;;;;;;;;;;5176003;27;20137;-65
2023/04/28 06:39:44;;;;;;;8.52;6.68;;;;;;;;;;5169968;27;20046;-62
2023/04/28 06:42:10;;;;;;;8.85;6.95;;;;;;;;;;5187036;27;20054;-61
2023/04/28 06:44:37;;;;;;;16.73;7.40;;;;;;;;;;5186381;27;20389;-61
2023/04/28 06:47:03;;;;;;;12.57;7.60;;;;;;;;;;5175742;27;20157;-62
2023/04/28 06:49:30;;;;;;;17.15;7.80;;;;;;;;;;5188253;27;20073;-62
2023/04/28 06:51:56;;;;;;;12.75;7.80;;;;;;;;;;5183436;27;20062;-62
2023/04/28 06:54:22;;;;;;;10.80;7.65;;;;;;;;;;5184364;27;20644;-61
2023/04/28 06:56:49;;;;;;;10.77;7.65;;;;;;;;;;5186304;27;20062;-61
2023/04/28 06:59:15;;;;;;;9.50;7.05;;;;;;;;;;5184888;27;20062;-61
2023/04/28 07:01:42;;;;;;;11.00;8.25;;;;;;;;;;5185620;27;20053;-62
2023/04/28 07:04:08;;;;;;;13.05;7.70;;;;;;;;;;5186292;27;20114;-62
2023/04/28 07:06:35;;;;;;;11.45;8.27;;;;;;;;;;5181443;27;20050;-61
2023/04/28 07:09:01;;;;;;;9.52;8.02;;;;;;;;;;5185398;27;20664;-62
2023/04/28 07:11:28;;;;;;;13.00;8.70;;;;;;;;;;5186375;27;20089;-61
2023/04/28 07:13:55;;;;;;;17.63;9.68;;;;;;;;;;5186073;27;20521;-61
2023/04/28 07:16:21;;;;;;;14.38;9.00;;;;;;;;;;5187110;27;20099;-61
2023/04/28 07:18:48;;;;;;;14.13;9.75;;;;;;;;;;5186175;27;20088;-61
2023/04/28 07:21:14;;;;;;;12.45;9.20;;;;;;;;;;5186753;27;20057;-61
2023/04/28 07:23:42;;;;;;;14.18;9.38;;;;;;;;;;5186737;27;20172;-61
2023/04/28 07:26:08;;;;;;;15.05;9.90;;;;;;;;;;5187206;27;20137;-61
2023/04/28 07:28:34;;;;;;;13.70;8.90;;;;;;;;;;5181478;27;20046;-62
2023/04/28 07:31:01;;;;;;;14.20;9.25;;;;;;;;;;5183217;27;20507;-63
2023/04/28 07:33:27;;;;;;;15.88;9.68;;;;;;;;;;5185841;27;20450;-61
2023/04/28 07:35:54;;;;;;;14.77;10.10;;;;;;;;;;5186638;27;20061;-62
2023/04/28 07:38:20;;;;;;;17.10;10.55;;;;;;;;;;5184578;27;20120;-64
2023/04/28 07:40:47;;;;;;;15.10;10.40;;;;;;;;;;5168014;27;20531;-62
2023/04/28 07:43:14;;;;;;;17.67;10.88;;;;;;;;;;5186645;27;20062;-62
2023/04/28 07:45:40;;;;;;;16.30;11.23;;;;;;;;;;5186518;27;20050;-61
2023/04/28 07:48:07;;;;;;;15.73;10.30;;;;;;;;;;5186492;27;20054;-61
2023/04/28 07:50:33;;;;;;;15.13;11.88;;;;;;;;;;5184063;27;20122;-62
2023/04/28 07:53:00;;;;;;;16.17;11.27;;;;;;;;;;5185259;27;20123;-62
2023/04/28 07:55:26;;;;;;;19.55;11.50;;;;;;;;;;5187679;27;20550;-62
2023/04/28 07:57:54;;;;;;;18.10;11.85;;;;;;;;;;5186203;27;20610;-62
2023/04/28 08:00:20;;;;;;;18.63;11.40;;;;;;;;;;5184679;27;20057;-61
2023/04/28 08:02:47;;;;;;;20.45;12.00;;;;;;;;;;5183919;27;20058;-62
2023/04/28 08:05:14;;;;;;;16.52;11.65;;;;;;;;;;5186406;27;20050;-61
2023/04/28 08:07:41;;;;;;;15.77;12.02;;;;;;;;;;5179235;27;20061;-61
2023/04/28 08:10:09;;;;;;;17.10;12.15;;;;;;;;;;5166740;27;20051;-62
2023/04/28 08:12:35;;;;;;;15.98;11.23;;;;;;;;;;5183014;27;20054;-62
2023/04/28 08:15:02;;;;;;;18.75;12.27;;;;;;;;;;5187210;27;20062;-63
2023/04/28 08:17:29;;;;;;;18.67;11.73;;;;;;;;;;5185611;27;20119;-63
2023/04/28 08:19:55;;;;;;;17.55;11.57;;;;;;;;;;5168187;27;20098;-62
2023/04/28 08:22:22;;;;;;;18.98;12.00;;;;;;;;;;5182587;27;20046;-62
2023/04/28 08:24:48;;;;;;;22.75;12.10;;;;;;;;;;5186924;27;20046;-62
2023/04/28 08:27:14;;;;;;;15.82;11.45;;;;;;;;;;5185679;27;20126;-62
2023/04/28 08:29:41;;;;;;;19.00;12.63;;;;;;;;;;5185000;27;20051;-62
2023/04/28 08:32:08;;;;;;;20.67;12.73;;;;;;;;;;5184100;27;20133;-62
2023/04/28 08:34:34;;;;;;;24.25;12.93;;;;;;;;;;5184724;27;20061;-61
2023/04/28 08:37:01;;;;;;;14.05;11.70;;;;;;;;;;5183230;27;20141;-61
2023/04/28 08:39:28;;;;;;;17.23;11.98;;;;;;;;;;5186315;27;20057;-61
2023/04/28 08:41:55;;;;;;;16.65;12.38;;;;;;;;;;5179837;27;20050;-61
2023/04/28 08:44:22;;;;;;;17.45;13.38;;;;;;;;;;5180704;27;20125;-61
2023/04/28 08:46:49;;;;;;;19.63;13.63;;;;;;;;;;5160760;27;20055;-61
2023/04/28 08:49:16;;;;;;;20.52;13.52;;;;;;;;;;5184229;27;20078;-61
2023/04/28 08:51:54;;;;;;;17.45;13.88;;;;;;;;;;5185285;27;20572;-63
2023/04/28 08:54:21;;;;;;;27.63;15.68;;;;;;;;;;5184690;27;20133;-61
2023/04/28 08:56:52;;;;;;;24.38;14.88;;;;;;;;;;5185572;27;20046;-61
2023/04/28 08:59:18;;;;;;;17.05;13.15;;;;;;;;;;5184206;27;20110;-61
2023/04/28 09:01:47;;;;;;;19.17;13.60;;;;;;;;;;5182186;27;20138;-60
2023/04/28 09:04:15;;;;;;;19.85;15.23;;;;;;;;;;5182656;27;20408;-60
2023/04/28 09:06:44;;;;;;;17.55;14.18;;;;;;;;;;5164328;27;20054;-61
2023/04/28 09:09:20;;;;;;;21.35;14.10;;;;;;;;;;5184451;27;20584;-60
2023/04/28 09:11:49;;;;;;;20.13;16.00;;;;;;;;;;5182167;27;20504;-61
2023/04/28 09:14:16;;;;;;;22.35;14.07;;;;;;;;;;5184469;27;20481;-61
2023/04/28 09:16:42;;;;;;;19.30;14.98;;;;;;;;;;5166356;27;20508;-61
2023/04/28 09:19:09;;;;;;;21.90;14.85;;;;;;;;;;5179285;27;20101;-61
2023/04/28 09:21:49;;;;;;;21.45;15.10;;;;;;;;;;5177887;27;20058;-60
2023/04/28 09:24:31;;;;;;;22.65;16.67;;;;;;;;;;5180989;27;20046;-61
2023/04/28 09:27:06;;;;;;;28.05;17.00;;;;;;;;;;5187612;27;20050;-60
2023/04/28 09:29:33;;;;;;;27.00;17.02;;;;;;;;;;5196206;27;20077;-60
2023/04/28 09:32:18;;;;;;;24.15;16.08;;;;;;;;;;5194783;27;20046;-60
2023/04/28 09:34:46;;;;;;;22.65;16.58;;;;;;;;;;5187218;27;20145;-60
2023/04/28 09:37:15;;;;;;;22.40;16.65;;;;;;;;;;5187870;27;20099;-61
2023/04/28 09:39:43;;;;;;;23.30;16.00;;;;;;;;;;5167726;27;20141;-61
2023/04/28 09:42:09;;;;;;;22.10;16.27;;;;;;;;;;5155035;27;20058;-60
2023/04/28 09:44:36;;;;;;;22.38;16.95;;;;;;;;;;5187048;27;20143;-60
2023/04/28 09:47:19;;;;;;;21.98;17.35;;;;;;;;;;5186357;27;20155;-61
2023/04/28 09:49:52;;;;;;;23.67;18.25;;;;;;;;;;5189134;27;20596;-61
2023/04/28 09:52:19;;;;;;;22.48;17.85;;;;;;;;;;5187562;27;20057;-61
2023/04/28 09:54:48;;;;;;;24.35;18.67;;;;;;;;;;5189390;27;20837;-60
2023/04/28 09:57:15;;;;;;;21.17;17.15;;;;;;;;;;5186076;27;20504;-61
2023/04/28 09:59:44;;;;;;;23.25;17.63;;;;;;;;;;5187713;27;20141;-61
2023/04/28 10:02:10;;;;;;;23.48;18.13;;;;;;;;;;5189222;27;20432;-61
2023/04/28 10:04:57;;;;;;;21.88;17.50;;;;;;;;;;5188826;27;20061;-61
2023/04/28 10:07:25;;;;;;;27.55;17.98;;;;;;;;;;5189131;27;20749;-61
2023/04/28 10:09:53;;;;;;;23.58;17.25;;;;;;;;;;5187568;27;20058;-59
2023/04/28 10:12:20;;;;;;;22.27;17.25;;;;;;;;;;5187370;27;20077;-61
2023/04/28 10:14:53;;;;;;;21.40;17.73;;;;;;;;;;5187782;27;20062;-61
2023/04/28 10:17:20;;;;;;;22.00;16.20;;;;;;;;;;5185811;27;20050;-60
2023/04/28 10:19:49;;;;;;;19.77;16.15;;;;;;;;;;5184176;27;20053;-60
2023/04/28 10:22:24;;;;;;;20.98;16.67;;;;;;;;;;5179430;27;20443;-60
2023/04/28 10:25:00;;;;;;;20.25;17.02;;;;;;;;;;5181321;27;20047;-62
2023/04/28 10:27:26;;;;;;;;;;;;;;;;;;5185937;27;20057;-60
2023/04/28 10:29:53;;;;;;;17.75;15.65;;;;;;;;;;5185327;27;47447;-60
2023/04/28 10:32:23;;;;;;;20.83;15.75;;;;;;;;;;5187738;27;20488;-60
2023/04/28 10:34:50;;;;;;;21.15;16.15;;;;;;;;;;5184844;27;20058;-60
2023/04/28 10:37:18;;;;;;;17.65;14.25;;;;;;;;;;5177013;27;20053;-60
2023/04/28 10:40:19;;;;;;;17.52;14.55;;;;;;;;;;5187486;27;20046;-61
2023/04/28 10:42:55;;;;;;;16.33;13.80;;;;;;;;;;5188164;27;20051;-60
2023/04/28 10:45:40;;;;;;;18.33;15.20;;;;;;;;;;5184446;27;20046;-59
2023/04/28 10:48:07;;;;;;;16.23;13.45;;;;;;;;;;5184131;27;20050;-60
2023/04/28 10:50:36;;;;;;;17.45;12.85;;;;;;;;;;5185532;27;20200;-61
2023/04/28 10:53:04;;;;;;;17.30;13.40;;;;;;;;;;5182129;27;20492;-60
2023/04/28 10:55:38;;;;;;;19.15;13.52;;;;;;;;;;5187901;27;20137;-60
2023/04/28 10:58:13;;;;;;;17.65;13.98;;;;;;;;;;5188244;27;20057;-61
2023/04/28 11:00:40;;;;;;;17.67;13.32;;;;;;;;;;5187934;27;20057;-60
2023/04/28 11:03:07;;;;;;;15.30;13.07;;;;;;;;;;5188229;27;20516;-60
2023/04/28 11:05:34;;;;;;;15.73;13.20;;;;;;;;;;5186092;27;20552;-61
2023/04/28 11:08:19;;;;;;;16.52;11.73;;;;;;;;;;5184341;27;20391;-60
2023/04/28 11:11:04;;;;;;;15.70;12.32;;;;;;;;;;5183265;27;20057;-61
2023/04/28 11:13:33;;;;;;;17.88;13.43;;;;;;;;;;5168481;27;20044;-61
2023/04/28 11:16:05;;;;;;;18.40;13.13;;;;;;;;;;5187718;27;20515;-61
2023/04/28 11:18:49;;;;;;;16.02;11.43;;;;;;;;;;5184552;27;20064;-60
2023/04/28 11:21:18;;;;;;;13.73;9.93;;;;;;;;;;5186846;27;20173;-62
2023/04/28 11:23:44;;;;;;;12.30;9.95;;;;;;;;;;5187505;27;20252;-61
2023/04/28 11:26:11;;;;;;;14.68;11.20;;;;;;;;;;5186137;27;20050;-61
2023/04/28 11:28:50;;;;;;;13.50;10.38;;;;;;;;;;5185429;27;20537;-60
2023/04/28 11:31:22;;;;;;;13.23;10.63;;;;;;;;;;5182401;27;20050;-61
2023/04/28 11:33:53;;;;;;;15.50;10.82;;;;;;;;;;5185554;27;20584;-61
2023/04/28 11:36:26;;;;;;;13.27;9.52;;;;;;;;;;5185194;27;20054;-61
2023/04/28 11:38:55;;;;;;;14.35;10.02;;;;;;;;;;5168620;27;20050;-60
2023/04/28 11:41:21;;;;;;;16.92;10.98;;;;;;;;;;5186200;27;20046;-60
2023/04/28 11:43:47;;;;;;;16.13;10.68;;;;;;;;;;5187159;27;20709;-60
2023/04/28 11:46:18;;;;;;;13.05;9.55;;;;;;;;;;5187814;27;20130;-60
2023/04/28 11:48:45;;;;;;;14.70;10.88;;;;;;;;;;5184577;27;20050;-60
2023/04/28 11:51:49;;;;;;;12.65;10.35;;;;;;;;;;5183976;27;20049;-61
2023/04/28 11:54:34;;;;;;;12.88;9.57;;;;;;;;;;5080801;28;20056;-60
2023/04/28 11:57:03;;;;;;;17.05;10.75;;;;;;;;;;5068622;28;20514;-60
2023/04/28 11:59:32;;;;;;;13.95;8.68;;;;;;;;;;5064783;28;20876;-60
2023/04/28 12:02:01;;;;;;;13.05;8.40;;;;;;;;;;5080334;28;20115;-60
2023/04/28 12:04:36;;;;;;;16.67;8.77;;;;;;;;;;5062033;28;20057;-61
2023/04/28 12:07:03;;;;;;;;;;;;;;;;;;5079021;28;20428;-60
2023/04/28 12:09:30;;;;;;;11.48;7.47;;;;;;;;;;5079244;28;45679;-60
2023/04/28 12:11:58;;;;;;;10.00;7.40;;;;;;;;;;5080372;28;20438;-60
2023/04/28 12:14:25;;;;;;;8.68;6.85;;;;;;;;;;5076992;28;20052;-60
2023/04/28 12:16:51;;;;;;;11.05;6.20;;;;;;;;;;5066853;28;20664;-60
2023/04/28 12:19:19;;;;;;;12.07;6.75;;;;;;;;;;5065187;28;20063;-60
2023/04/28 12:22:04;;;;;;;9.90;6.57;;;;;;;;;;5069495;28;20539;-59
2023/04/28 12:24:31;;;;;;;11.00;6.10;;;;;;;;;;5096858;27;20057;-60
2023/04/28 12:27:16;;;;;;;9.15;6.40;;;;;;;;;;5183252;27;20086;-60
2023/04/28 12:29:44;;;;;;;11.10;5.10;;;;;;;;;;5165993;27;20421;-60
2023/04/28 12:32:12;;;;;;;8.40;5.05;;;;;;;;;;5186063;27;20058;-59
2023/04/28 12:34:39;;;;;;;7.45;5.03;;;;;;;;;;5186077;27;20054;-60
2023/04/28 12:37:05;;;;;;;6.63;4.63;;;;;;;;;;5198069;27;20153;-61
2023/04/28 12:39:33;;;;;;;8.98;5.40;;;;;;;;;;5191488;27;20607;-61
2023/04/28 12:42:02;;;;;;;7.13;5.28;;;;;;;;;;5179204;27;20050;-60
2023/04/28 12:44:34;;;;;;;6.43;4.97;;;;;;;;;;5181641;27;20647;-61
2023/04/28 12:47:05;;;;;;;5.35;4.18;;;;;;;;;;5171454;27;20050;-60
2023/04/28 12:49:31;;;;;;;7.63;4.63;;;;;;;;;;5179241;27;20664;-61
2023/04/28 12:51:58;;;;;;;6.68;4.43;;;;;;;;;;5182821;27;20061;-61
2023/04/28 12:54:25;;;;;;;6.63;4.93;;;;;;;;;;5182091;27;20815;-61
2023/04/28 12:56:53;;;;;;;6.50;5.32;;;;;;;;;;5166810;27;20061;-61
2023/04/28 12:59:20;;;;;;;9.45;6.72;;;;;;;;;;5188280;27;20137;-61
2023/04/28 13:01:47;;;;;;;8.55;6.93;;;;;;;;;;5173632;27;20572;-61
2023/04/28 13:04:13;;;;;;;11.40;7.60;;;;;;;;;;5183082;27;20061;-59
2023/04/28 13:06:43;;;;;;;10.20;7.57;;;;;;;;;;5186861;27;20103;-61
2023/04/28 13:09:10;;;;;;;10.80;7.82;;;;;;;;;;5174134;27;20047;-61
2023/04/28 13:11:37;;;;;;;11.57;7.90;;;;;;;;;;5181674;27;20096;-61
2023/04/28 13:14:03;;;;;;;8.30;7.50;;;;;;;;;;5173958;27;20055;-62
2023/04/28 13:16:30;;;;;;;8.90;7.40;;;;;;;;;;5187013;27;20039;-60
2023/04/28 13:18:56;;;;;;;7.72;6.90;;;;;;;;;;5176957;27;20548;-59
2023/04/28 13:21:23;;;;;;;8.20;7.40;;;;;;;;;;5162245;27;20125;-60
2023/04/28 13:23:50;;;;;;;8.15;6.63;;;;;;;;;;5187618;27;20080;-60
2023/04/28 13:26:18;;;;;;;6.85;6.25;;;;;;;;;;5179232;27;20176;-61
2023/04/28 13:28:46;;;;;;;6.82;6.22;;;;;;;;;;5185493;27;20129;-61
2023/04/28 13:31:13;;;;;;;6.20;5.60;;;;;;;;;;5176483;27;20555;-61
2023/04/28 13:33:39;;;;;;;6.03;5.43;;;;;;;;;;5177288;27;20726;-60
2023/04/28 13:36:07;;;;;;;6.25;5.65;;;;;;;;;;5187333;27;20062;-62
2023/04/28 13:38:33;;;;;;;5.75;5.25;;;;;;;;;;5186668;27;20050;-62
2023/04/28 13:41:00;;;;;;;5.43;4.93;;;;;;;;;;5179681;27;20046;-62
2023/04/28 13:43:27;;;;;;;6.13;5.53;;;;;;;;;;5178098;27;20054;-62
2023/04/28 13:45:54;;;;;;;4.90;4.50;;;;;;;;;;5162706;27;20210;-62
2023/04/28 13:48:20;;;;;;;4.88;4.47;;;;;;;;;;5175286;27;20051;-62
2023/04/28 13:50:46;;;;;;;4.00;3.70;;;;;;;;;;5151346;27;20571;-62
2023/04/28 13:53:13;;;;;;;3.90;3.60;;;;;;;;;;5184483;27;20058;-61
2023/04/28 13:55:39;;;;;;;3.53;3.13;;;;;;;;;;5181776;27;20129;-66
2023/04/28 13:58:06;;;;;;;5.82;3.00;;;;;;;;;;5185817;27;20073;-61
2023/04/28 14:00:33;;;;;;;2.80;2.60;;;;;;;;;;5180664;27;20053;-61
2023/04/28 14:02:59;;;;;;;3.00;2.70;;;;;;;;;;5180576;27;20051;-61
2023/04/28 14:05:26;;;;;;;3.05;2.85;;;;;;;;;;5176279;27;20079;-62
2023/04/28 14:07:57;;;;;;;4.55;3.47;;;;;;;;;;5176211;27;20058;-61
2023/04/28 14:10:31;;;;;;;4.20;3.47;;;;;;;;;;5157424;27;20153;-62
2023/04/28 14:12:58;;;;;;;4.60;3.63;;;;;;;;;;5175789;27;20054;-61
2023/04/28 14:15:24;;;;;;;4.53;3.65;;;;;;;;;;5176530;27;20047;-61
2023/04/28 14:17:50;;;;;;;5.05;3.60;;;;;;;;;;5173999;27;20130;-61
2023/04/28 14:20:17;;;;;;;4.95;4.45;;;;;;;;;;5178339;27;20058;-62
2023/04/28 14:22:43;;;;;;;4.78;4.20;;;;;;;;;;5184424;27;20134;-61
2023/04/28 14:25:10;;;;;;;4.97;4.05;;;;;;;;;;5164110;27;20053;-62
2023/04/28 14:27:36;;;;;;;5.35;4.13;;;;;;;;;;5181387;27;20046;-61
2023/04/28 14:30:03;;;;;;;5.65;4.57;;;;;;;;;;5180846;27;20515;-62
2023/04/28 14:32:30;;;;;;;5.95;4.63;;;;;;;;;;5178286;27;20053;-61
2023/04/28 14:34:56;;;;;;;6.45;5.40;;;;;;;;;;5180283;27;20620;-59
2023/04/28 14:37:23;;;;;;;8.25;5.50;;;;;;;;;;5180600;27;20424;-61